sensor_id;sensor_type;location;lat;lon;timestamp;P1;durP1;ratioP1;P2;durP2;ratioP2
14209;SDS011;7188;56.070;12.698;2023-08-30T00:00:53;2.20;;;1.70;;
14209;SDS011;7188;56.070;12.698;2023-08-30T00:03:19;3.07;;;1.50;;
14209;SDS011;7188;56.070;12.698;2023-08-30T00:05:45;2.20;;;2.00;;
14209;SDS011;7188;56.070;12.698;2023-08-30T00:08:10;2.47;;;1.80;;
14209;SDS011;7188;56.070;12.698;2023-08-30T00:10:38;3.47;;;1.70;;
14209;SDS011;7188;56.070;12.698;2023-08-30T00:13:04;2.60;;;1.60;;
14209;SDS011;7188;56.070;12.698;2023-08-30T00:15:30;4.13;;;1.80;;
14209;SDS011;7188;56.070;12.698;2023-08-30T00:17:55;2.80;;;1.80;;
14209;SDS011;7188;56.070;12.698;2023-08-30T00:20:21;2.67;;;1.63;;
14209;SDS011;7188;56.070;12.698;2023-08-30T00:22:46;5.33;;;2.07;;
14209;SDS011;7188;56.070;12.698;2023-08-30T00:25:13;3.53;;;1.23;;
14209;SDS011;7188;56.070;12.698;2023-08-30T00:27:39;2.13;;;2.00;;
14209;SDS011;7188;56.070;12.698;2023-08-30T00:30:05;1.77;;;1.40;;
14209;SDS011;7188;56.070;12.698;2023-08-30T00:32:33;4.20;;;1.90;;
14209;SDS011;7188;56.070;12.698;2023-08-30T00:34:58;4.77;;;1.60;;
14209;SDS011;7188;56.070;12.698;2023-08-30T00:37:24;1.60;;;1.47;;
14209;SDS011;7188;56.070;12.698;2023-08-30T00:39:51;2.30;;;1.50;;
14209;SDS011;7188;56.070;12.698;2023-08-30T00:42:25;3.20;;;2.13;;
14209;SDS011;7188;56.070;12.698;2023-08-30T00:44:52;2.60;;;1.53;;
14209;SDS011;7188;56.070;12.698;2023-08-30T00:47:17;4.87;;;1.60;;
14209;SDS011;7188;56.070;12.698;2023-08-30T00:49:43;3.07;;;1.70;;
14209;SDS011;7188;56.070;12.698;2023-08-30T00:52:09;2.73;;;2.10;;
14209;SDS011;7188;56.070;12.698;2023-08-30T00:54:35;3.93;;;1.80;;
14209;SDS011;7188;56.070;12.698;2023-08-30T00:57:02;1.63;;;1.57;;
14209;SDS011;7188;56.070;12.698;2023-08-30T00:59:29;1.70;;;1.50;;
14209;SDS011;7188;56.070;12.698;2023-08-30T01:01:57;2.97;;;2.00;;
14209;SDS011;7188;56.070;12.698;2023-08-30T01:04:32;2.63;;;1.60;;
14209;SDS011;7188;56.070;12.698;2023-08-30T01:06:58;2.23;;;1.60;;
14209;SDS011;7188;56.070;12.698;2023-08-30T01:09:24;2.10;;;1.90;;
14209;SDS011;7188;56.070;12.698;2023-08-30T01:11:56;3.47;;;2.17;;
14209;SDS011;7188;56.070;12.698;2023-08-30T01:14:54;1.80;;;1.70;;
14209;SDS011;7188;56.070;12.698;2023-08-30T01:17:23;3.80;;;1.57;;
14209;SDS011;7188;56.070;12.698;2023-08-30T01:22:17;1.90;;;1.73;;
14209;SDS011;7188;56.070;12.698;2023-08-30T01:27:30;3.00;;;1.97;;
14209;SDS011;7188;56.070;12.698;2023-08-30T01:30:00;2.13;;;1.93;;
14209;SDS011;7188;56.070;12.698;2023-08-30T01:32:27;2.07;;;1.87;;
14209;SDS011;7188;56.070;12.698;2023-08-30T01:34:55;3.70;;;2.30;;
14209;SDS011;7188;56.070;12.698;2023-08-30T01:37:21;1.73;;;1.63;;
14209;SDS011;7188;56.070;12.698;2023-08-30T01:39:48;2.60;;;2.27;;
14209;SDS011;7188;56.070;12.698;2023-08-30T01:42:15;3.60;;;1.70;;
14209;SDS011;7188;56.070;12.698;2023-08-30T01:44:40;1.77;;;1.67;;
14209;SDS011;7188;56.070;12.698;2023-08-30T01:47:09;1.67;;;1.57;;
14209;SDS011;7188;56.070;12.698;2023-08-30T01:49:36;2.07;;;1.57;;
14209;SDS011;7188;56.070;12.698;2023-08-30T01:52:04;1.73;;;1.33;;
14209;SDS011;7188;56.070;12.698;2023-08-30T01:54:31;1.83;;;1.50;;
14209;SDS011;7188;56.070;12.698;2023-08-30T01:56:57;5.80;;;2.13;;
14209;SDS011;7188;56.070;12.698;2023-08-30T01:59:23;1.77;;;1.67;;
14209;SDS011;7188;56.070;12.698;2023-08-30T02:01:50;2.23;;;2.03;;
14209;SDS011;7188;56.070;12.698;2023-08-30T02:04:16;2.00;;;1.60;;
14209;SDS011;7188;56.070;12.698;2023-08-30T02:06:43;1.70;;;1.60;;
14209;SDS011;7188;56.070;12.698;2023-08-30T02:11:47;1.70;;;1.20;;
14209;SDS011;7188;56.070;12.698;2023-08-30T02:14:15;1.97;;;1.50;;
14209;SDS011;7188;56.070;12.698;2023-08-30T02:16:43;2.87;;;1.60;;
14209;SDS011;7188;56.070;12.698;2023-08-30T02:19:10;2.40;;;2.20;;
14209;SDS011;7188;56.070;12.698;2023-08-30T02:21:39;2.53;;;1.47;;
14209;SDS011;7188;56.070;12.698;2023-08-30T02:24:05;2.17;;;1.97;;
14209;SDS011;7188;56.070;12.698;2023-08-30T02:26:31;3.03;;;1.63;;
14209;SDS011;7188;56.070;12.698;2023-08-30T02:28:56;2.00;;;1.80;;
14209;SDS011;7188;56.070;12.698;2023-08-30T02:31:22;1.83;;;1.73;;
14209;SDS011;7188;56.070;12.698;2023-08-30T02:33:48;2.27;;;1.83;;
14209;SDS011;7188;56.070;12.698;2023-08-30T02:36:13;3.13;;;1.90;;
14209;SDS011;7188;56.070;12.698;2023-08-30T02:38:39;2.67;;;1.97;;
14209;SDS011;7188;56.070;12.698;2023-08-30T02:41:04;2.40;;;1.60;;
14209;SDS011;7188;56.070;12.698;2023-08-30T02:43:30;1.87;;;1.67;;
14209;SDS011;7188;56.070;12.698;2023-08-30T02:45:56;2.60;;;1.53;;
14209;SDS011;7188;56.070;12.698;2023-08-30T02:48:21;1.83;;;1.43;;
14209;SDS011;7188;56.070;12.698;2023-08-30T02:50:47;1.87;;;1.70;;
14209;SDS011;7188;56.070;12.698;2023-08-30T02:53:12;1.97;;;1.50;;
14209;SDS011;7188;56.070;12.698;2023-08-30T02:55:38;3.20;;;2.17;;
14209;SDS011;7188;56.070;12.698;2023-08-30T02:58:04;3.90;;;1.87;;
14209;SDS011;7188;56.070;12.698;2023-08-30T03:00:29;4.13;;;1.90;;
14209;SDS011;7188;56.070;12.698;2023-08-30T03:02:55;2.97;;;1.80;;
14209;SDS011;7188;56.070;12.698;2023-08-30T03:05:20;2.13;;;1.50;;
14209;SDS011;7188;56.070;12.698;2023-08-30T03:07:46;5.97;;;1.93;;
14209;SDS011;7188;56.070;12.698;2023-08-30T03:10:12;2.47;;;1.57;;
14209;SDS011;7188;56.070;12.698;2023-08-30T03:12:37;1.63;;;1.53;;
14209;SDS011;7188;56.070;12.698;2023-08-30T03:15:03;2.40;;;2.20;;
14209;SDS011;7188;56.070;12.698;2023-08-30T03:17:30;2.40;;;1.80;;
14209;SDS011;7188;56.070;12.698;2023-08-30T03:19:55;4.50;;;2.13;;
14209;SDS011;7188;56.070;12.698;2023-08-30T03:22:21;2.43;;;2.27;;
14209;SDS011;7188;56.070;12.698;2023-08-30T03:24:47;2.10;;;1.70;;
14209;SDS011;7188;56.070;12.698;2023-08-30T03:27:14;2.57;;;1.60;;
14209;SDS011;7188;56.070;12.698;2023-08-30T03:29:40;3.97;;;2.37;;
14209;SDS011;7188;56.070;12.698;2023-08-30T03:32:05;3.73;;;1.80;;
14209;SDS011;7188;56.070;12.698;2023-08-30T03:34:31;4.57;;;2.00;;
14209;SDS011;7188;56.070;12.698;2023-08-30T03:36:56;2.60;;;1.73;;
14209;SDS011;7188;56.070;12.698;2023-08-30T03:39:22;6.30;;;2.07;;
14209;SDS011;7188;56.070;12.698;2023-08-30T03:41:49;1.77;;;1.53;;
14209;SDS011;7188;56.070;12.698;2023-08-30T03:44:15;1.73;;;1.60;;
14209;SDS011;7188;56.070;12.698;2023-08-30T03:46:41;2.87;;;1.60;;
14209;SDS011;7188;56.070;12.698;2023-08-30T03:49:06;1.80;;;1.70;;
14209;SDS011;7188;56.070;12.698;2023-08-30T03:51:32;1.50;;;1.40;;
14209;SDS011;7188;56.070;12.698;2023-08-30T03:53:57;1.87;;;1.60;;
14209;SDS011;7188;56.070;12.698;2023-08-30T03:56:23;1.57;;;1.47;;
14209;SDS011;7188;56.070;12.698;2023-08-30T03:58:48;2.13;;;1.57;;
14209;SDS011;7188;56.070;12.698;2023-08-30T04:04:05;2.00;;;1.90;;
14209;SDS011;7188;56.070;12.698;2023-08-30T04:06:31;2.97;;;1.97;;
14209;SDS011;7188;56.070;12.698;2023-08-30T04:08:56;3.37;;;1.70;;
14209;SDS011;7188;56.070;12.698;2023-08-30T04:11:22;2.40;;;1.47;;
14209;SDS011;7188;56.070;12.698;2023-08-30T04:13:48;2.23;;;1.60;;
14209;SDS011;7188;56.070;12.698;2023-08-30T04:16:14;2.30;;;1.93;;
14209;SDS011;7188;56.070;12.698;2023-08-30T04:18:39;2.33;;;1.77;;
14209;SDS011;7188;56.070;12.698;2023-08-30T04:21:05;4.47;;;2.17;;
14209;SDS011;7188;56.070;12.698;2023-08-30T04:23:32;3.50;;;2.27;;
14209;SDS011;7188;56.070;12.698;2023-08-30T04:25:58;3.20;;;2.20;;
14209;SDS011;7188;56.070;12.698;2023-08-30T04:28:23;3.87;;;2.37;;
14209;SDS011;7188;56.070;12.698;2023-08-30T04:30:53;2.60;;;2.30;;
14209;SDS011;7188;56.070;12.698;2023-08-30T04:33:19;2.43;;;1.60;;
14209;SDS011;7188;56.070;12.698;2023-08-30T04:35:49;1.83;;;1.73;;
14209;SDS011;7188;56.070;12.698;2023-08-30T04:38:18;2.10;;;1.90;;
14209;SDS011;7188;56.070;12.698;2023-08-30T04:40:44;2.83;;;2.00;;
14209;SDS011;7188;56.070;12.698;2023-08-30T04:43:11;3.80;;;1.83;;
14209;SDS011;7188;56.070;12.698;2023-08-30T04:45:36;3.60;;;2.23;;
14209;SDS011;7188;56.070;12.698;2023-08-30T04:50:57;1.70;;;1.57;;
14209;SDS011;7188;56.070;12.698;2023-08-30T04:53:23;5.00;;;2.53;;
14209;SDS011;7188;56.070;12.698;2023-08-30T04:55:49;3.00;;;2.10;;
14209;SDS011;7188;56.070;12.698;2023-08-30T04:58:14;2.43;;;2.20;;
14209;SDS011;7188;56.070;12.698;2023-08-30T05:00:40;1.73;;;1.63;;
14209;SDS011;7188;56.070;12.698;2023-08-30T05:03:06;2.13;;;1.80;;
14209;SDS011;7188;56.070;12.698;2023-08-30T05:05:31;2.33;;;2.00;;
14209;SDS011;7188;56.070;12.698;2023-08-30T05:07:57;3.60;;;2.03;;
14209;SDS011;7188;56.070;12.698;2023-08-30T05:10:22;1.93;;;1.80;;
14209;SDS011;7188;56.070;12.698;2023-08-30T05:12:48;4.23;;;2.53;;
14209;SDS011;7188;56.070;12.698;2023-08-30T05:15:16;3.03;;;2.50;;
14209;SDS011;7188;56.070;12.698;2023-08-30T05:17:43;2.97;;;2.20;;
14209;SDS011;7188;56.070;12.698;2023-08-30T05:20:08;3.87;;;2.00;;
14209;SDS011;7188;56.070;12.698;2023-08-30T05:22:34;3.03;;;1.97;;
14209;SDS011;7188;56.070;12.698;2023-08-30T05:25:00;3.50;;;2.50;;
14209;SDS011;7188;56.070;12.698;2023-08-30T05:27:26;2.63;;;2.43;;
14209;SDS011;7188;56.070;12.698;2023-08-30T05:29:52;5.60;;;2.60;;
14209;SDS011;7188;56.070;12.698;2023-08-30T05:32:18;3.97;;;2.93;;
14209;SDS011;7188;56.070;12.698;2023-08-30T05:34:44;3.27;;;2.70;;
14209;SDS011;7188;56.070;12.698;2023-08-30T05:37:09;2.77;;;2.57;;
14209;SDS011;7188;56.070;12.698;2023-08-30T05:39:35;5.67;;;3.07;;
14209;SDS011;7188;56.070;12.698;2023-08-30T05:42:01;2.50;;;2.00;;
14209;SDS011;7188;56.070;12.698;2023-08-30T05:44:26;4.53;;;2.67;;
14209;SDS011;7188;56.070;12.698;2023-08-30T05:46:52;3.23;;;2.60;;
14209;SDS011;7188;56.070;12.698;2023-08-30T05:49:18;3.47;;;1.80;;
14209;SDS011;7188;56.070;12.698;2023-08-30T05:51:43;3.13;;;2.10;;
14209;SDS011;7188;56.070;12.698;2023-08-30T05:54:09;4.00;;;2.40;;
14209;SDS011;7188;56.070;12.698;2023-08-30T05:56:34;4.03;;;2.20;;
14209;SDS011;7188;56.070;12.698;2023-08-30T05:59:00;1.63;;;1.47;;
14209;SDS011;7188;56.070;12.698;2023-08-30T06:01:26;2.40;;;1.77;;
14209;SDS011;7188;56.070;12.698;2023-08-30T06:03:51;4.13;;;2.37;;
14209;SDS011;7188;56.070;12.698;2023-08-30T06:06:17;1.90;;;1.70;;
14209;SDS011;7188;56.070;12.698;2023-08-30T06:08:43;2.63;;;2.17;;
14209;SDS011;7188;56.070;12.698;2023-08-30T06:11:08;2.67;;;2.50;;
14209;SDS011;7188;56.070;12.698;2023-08-30T06:13:34;2.20;;;2.00;;
14209;SDS011;7188;56.070;12.698;2023-08-30T06:15:59;2.80;;;2.07;;
14209;SDS011;7188;56.070;12.698;2023-08-30T06:18:30;5.57;;;2.87;;
14209;SDS011;7188;56.070;12.698;2023-08-30T06:21:00;4.73;;;2.93;;
14209;SDS011;7188;56.070;12.698;2023-08-30T06:23:26;5.20;;;3.67;;
14209;SDS011;7188;56.070;12.698;2023-08-30T06:25:57;4.70;;;3.00;;
14209;SDS011;7188;56.070;12.698;2023-08-30T06:28:23;6.33;;;4.10;;
14209;SDS011;7188;56.070;12.698;2023-08-30T06:30:49;6.13;;;3.43;;
14209;SDS011;7188;56.070;12.698;2023-08-30T06:33:15;3.70;;;2.60;;
14209;SDS011;7188;56.070;12.698;2023-08-30T06:35:41;3.73;;;2.80;;
14209;SDS011;7188;56.070;12.698;2023-08-30T06:41:29;2.87;;;2.57;;
14209;SDS011;7188;56.070;12.698;2023-08-30T06:43:55;2.30;;;1.77;;
14209;SDS011;7188;56.070;12.698;2023-08-30T06:46:21;3.50;;;2.10;;
14209;SDS011;7188;56.070;12.698;2023-08-30T06:48:47;2.30;;;2.10;;
14209;SDS011;7188;56.070;12.698;2023-08-30T06:51:22;5.03;;;1.67;;
14209;SDS011;7188;56.070;12.698;2023-08-30T06:53:48;2.00;;;1.50;;
14209;SDS011;7188;56.070;12.698;2023-08-30T06:56:13;3.17;;;1.40;;
14209;SDS011;7188;56.070;12.698;2023-08-30T06:58:39;1.67;;;1.57;;
14209;SDS011;7188;56.070;12.698;2023-08-30T07:01:05;2.03;;;1.83;;
14209;SDS011;7188;56.070;12.698;2023-08-30T07:03:30;3.23;;;1.40;;
14209;SDS011;7188;56.070;12.698;2023-08-30T07:05:56;1.13;;;1.00;;
14209;SDS011;7188;56.070;12.698;2023-08-30T07:08:22;2.37;;;1.03;;
14209;SDS011;7188;56.070;12.698;2023-08-30T07:10:47;2.33;;;1.30;;
14209;SDS011;7188;56.070;12.698;2023-08-30T07:13:13;2.65;;;0.88;;
14209;SDS011;7188;56.070;12.698;2023-08-30T07:15:39;0.90;;;0.90;;
14209;SDS011;7188;56.070;12.698;2023-08-30T07:18:05;1.30;;;1.13;;
14209;SDS011;7188;56.070;12.698;2023-08-30T07:20:32;2.15;;;1.10;;
14209;SDS011;7188;56.070;12.698;2023-08-30T07:22:58;2.77;;;0.93;;
14209;SDS011;7188;56.070;12.698;2023-08-30T07:25:23;3.13;;;0.70;;
14209;SDS011;7188;56.070;12.698;2023-08-30T07:27:49;1.58;;;0.85;;
14209;SDS011;7188;56.070;12.698;2023-08-30T07:30:15;1.67;;;0.80;;
14209;SDS011;7188;56.070;12.698;2023-08-30T07:32:40;1.50;;;0.90;;
14209;SDS011;7188;56.070;12.698;2023-08-30T07:35:06;2.75;;;1.02;;
14209;SDS011;7188;56.070;12.698;2023-08-30T07:37:32;1.90;;;0.98;;
14209;SDS011;7188;56.070;12.698;2023-08-30T07:40:04;0.80;;;0.80;;
14209;SDS011;7188;56.070;12.698;2023-08-30T07:42:30;1.05;;;0.60;;
14209;SDS011;7188;56.070;12.698;2023-08-30T07:44:55;0.70;;;0.70;;
14209;SDS011;7188;56.070;12.698;2023-08-30T07:47:21;2.08;;;0.60;;
14209;SDS011;7188;56.070;12.698;2023-08-30T07:49:47;0.95;;;0.60;;
14209;SDS011;7188;56.070;12.698;2023-08-30T07:52:12;1.38;;;0.60;;
14209;SDS011;7188;56.070;12.698;2023-08-30T07:54:39;0.90;;;0.50;;
14209;SDS011;7188;56.070;12.698;2023-08-30T07:57:05;0.50;;;0.50;;
14209;SDS011;7188;56.070;12.698;2023-08-30T07:59:35;0.50;;;0.50;;
14209;SDS011;7188;56.070;12.698;2023-08-30T08:02:02;1.00;;;0.55;;
14209;SDS011;7188;56.070;12.698;2023-08-30T08:04:36;1.20;;;0.50;;
14209;SDS011;7188;56.070;12.698;2023-08-30T08:07:02;0.93;;;0.32;;
14209;SDS011;7188;56.070;12.698;2023-08-30T08:09:29;0.52;;;0.50;;
14209;SDS011;7188;56.070;12.698;2023-08-30T08:11:55;1.38;;;0.40;;
14209;SDS011;7188;56.070;12.698;2023-08-30T08:14:21;1.08;;;0.50;;
14209;SDS011;7188;56.070;12.698;2023-08-30T08:16:48;1.48;;;1.00;;
14209;SDS011;7188;56.070;12.698;2023-08-30T08:19:13;0.98;;;0.70;;
14209;SDS011;7188;56.070;12.698;2023-08-30T08:21:39;1.25;;;0.70;;
14209;SDS011;7188;56.070;12.698;2023-08-30T08:24:05;0.63;;;0.50;;
14209;SDS011;7188;56.070;12.698;2023-08-30T08:26:30;2.38;;;0.52;;
14209;SDS011;7188;56.070;12.698;2023-08-30T08:28:56;2.08;;;0.50;;
14209;SDS011;7188;56.070;12.698;2023-08-30T08:31:23;1.10;;;0.50;;
14209;SDS011;7188;56.070;12.698;2023-08-30T08:34:06;1.20;;;0.50;;
14209;SDS011;7188;56.070;12.698;2023-08-30T08:36:48;0.30;;;0.30;;
14209;SDS011;7188;56.070;12.698;2023-08-30T08:39:14;0.22;;;0.22;;
14209;SDS011;7188;56.070;12.698;2023-08-30T08:41:44;1.15;;;0.40;;
14209;SDS011;7188;56.070;12.698;2023-08-30T08:44:10;0.63;;;0.40;;
14209;SDS011;7188;56.070;12.698;2023-08-30T08:46:37;1.10;;;0.40;;
14209;SDS011;7188;56.070;12.698;2023-08-30T08:49:16;1.30;;;0.40;;
14209;SDS011;7188;56.070;12.698;2023-08-30T08:51:42;0.95;;;0.30;;
14209;SDS011;7188;56.070;12.698;2023-08-30T08:54:09;0.35;;;0.35;;
14209;SDS011;7188;56.070;12.698;2023-08-30T08:56:36;1.98;;;0.30;;
14209;SDS011;7188;56.070;12.698;2023-08-30T08:59:03;1.98;;;0.30;;
14209;SDS011;7188;56.070;12.698;2023-08-30T09:01:31;0.45;;;0.30;;
14209;SDS011;7188;56.070;12.698;2023-08-30T09:04:08;0.40;;;0.40;;
14209;SDS011;7188;56.070;12.698;2023-08-30T09:06:35;0.60;;;0.40;;
14209;SDS011;7188;56.070;12.698;2023-08-30T09:09:02;0.52;;;0.30;;
14209;SDS011;7188;56.070;12.698;2023-08-30T09:11:31;0.80;;;0.30;;
14209;SDS011;7188;56.070;12.698;2023-08-30T09:13:57;2.35;;;0.60;;
14209;SDS011;7188;56.070;12.698;2023-08-30T09:16:23;0.65;;;0.30;;
14209;SDS011;7188;56.070;12.698;2023-08-30T09:18:58;1.42;;;0.35;;
14209;SDS011;7188;56.070;12.698;2023-08-30T09:21:28;0.25;;;0.25;;
14209;SDS011;7188;56.070;12.698;2023-08-30T09:24:00;1.13;;;0.30;;
14209;SDS011;7188;56.070;12.698;2023-08-30T09:26:28;0.17;;;0.13;;
14209;SDS011;7188;56.070;12.698;2023-08-30T09:29:03;0.30;;;0.20;;
14209;SDS011;7188;56.070;12.698;2023-08-30T09:31:37;0.28;;;0.15;;
14209;SDS011;7188;56.070;12.698;2023-08-30T09:34:05;0.13;;;0.13;;
14209;SDS011;7188;56.070;12.698;2023-08-30T09:39:02;0.95;;;0.20;;
14209;SDS011;7188;56.070;12.698;2023-08-30T09:41:36;0.40;;;0.20;;
14209;SDS011;7188;56.070;12.698;2023-08-30T09:44:11;0.22;;;0.22;;
14209;SDS011;7188;56.070;12.698;2023-08-30T09:46:46;0.20;;;0.20;;
14209;SDS011;7188;56.070;12.698;2023-08-30T09:49:20;0.30;;;0.30;;
14209;SDS011;7188;56.070;12.698;2023-08-30T09:51:50;1.08;;;0.40;;
14209;SDS011;7188;56.070;12.698;2023-08-30T09:54:24;1.20;;;0.40;;
14209;SDS011;7188;56.070;12.698;2023-08-30T09:56:50;0.43;;;0.25;;
14209;SDS011;7188;56.070;12.698;2023-08-30T09:59:20;0.45;;;0.30;;
14209;SDS011;7188;56.070;12.698;2023-08-30T10:01:47;0.43;;;0.20;;
14209;SDS011;7188;56.070;12.698;2023-08-30T10:04:13;0.55;;;0.32;;
14209;SDS011;7188;56.070;12.698;2023-08-30T10:06:40;0.88;;;0.28;;
14209;SDS011;7188;56.070;12.698;2023-08-30T10:09:06;0.40;;;0.30;;
14209;SDS011;7188;56.070;12.698;2023-08-30T10:11:34;0.55;;;0.20;;
14209;SDS011;7188;56.070;12.698;2023-08-30T10:14:03;0.20;;;0.20;;
14209;SDS011;7188;56.070;12.698;2023-08-30T10:16:30;0.73;;;0.25;;
14209;SDS011;7188;56.070;12.698;2023-08-30T10:19:07;1.95;;;0.30;;
14209;SDS011;7188;56.070;12.698;2023-08-30T10:21:35;0.20;;;0.20;;
14209;SDS011;7188;56.070;12.698;2023-08-30T10:24:03;0.75;;;0.20;;
14209;SDS011;7188;56.070;12.698;2023-08-30T10:26:31;0.30;;;0.10;;
14209;SDS011;7188;56.070;12.698;2023-08-30T10:28:57;0.45;;;0.20;;
14209;SDS011;7188;56.070;12.698;2023-08-30T10:31:24;0.57;;;0.10;;
14209;SDS011;7188;56.070;12.698;2023-08-30T10:33:50;0.40;;;0.20;;
14209;SDS011;7188;56.070;12.698;2023-08-30T10:36:25;0.38;;;0.20;;
14209;SDS011;7188;56.070;12.698;2023-08-30T10:38:55;0.52;;;0.30;;
14209;SDS011;7188;56.070;12.698;2023-08-30T10:41:21;1.30;;;0.30;;
14209;SDS011;7188;56.070;12.698;2023-08-30T10:43:51;0.20;;;0.20;;
14209;SDS011;7188;56.070;12.698;2023-08-30T10:46:32;1.00;;;0.30;;
14209;SDS011;7188;56.070;12.698;2023-08-30T10:49:11;0.80;;;0.30;;
14209;SDS011;7188;56.070;12.698;2023-08-30T10:51:39;1.85;;;0.30;;
14209;SDS011;7188;56.070;12.698;2023-08-30T10:54:12;2.83;;;0.30;;
14209;SDS011;7188;56.070;12.698;2023-08-30T10:59:19;14.48;;;0.77;;
14209;SDS011;7188;56.070;12.698;2023-08-30T11:01:46;4.82;;;0.52;;
14209;SDS011;7188;56.070;12.698;2023-08-30T11:04:16;2.33;;;0.43;;
14209;SDS011;7188;56.070;12.698;2023-08-30T11:06:43;1.35;;;0.20;;
14209;SDS011;7188;56.070;12.698;2023-08-30T11:09:12;3.50;;;0.30;;
14209;SDS011;7188;56.070;12.698;2023-08-30T11:11:39;2.75;;;0.28;;
14209;SDS011;7188;56.070;12.698;2023-08-30T11:14:08;0.77;;;0.30;;
14209;SDS011;7188;56.070;12.698;2023-08-30T11:16:35;10.95;;;0.50;;
14209;SDS011;7188;56.070;12.698;2023-08-30T11:19:04;7.35;;;0.43;;
14209;SDS011;7188;56.070;12.698;2023-08-30T11:21:31;3.92;;;0.30;;
14209;SDS011;7188;56.070;12.698;2023-08-30T11:23:58;0.40;;;0.20;;
14209;SDS011;7188;56.070;12.698;2023-08-30T11:26:24;1.20;;;0.30;;
14209;SDS011;7188;56.070;12.698;2023-08-30T11:28:50;0.63;;;0.20;;
14209;SDS011;7188;56.070;12.698;2023-08-30T11:31:18;2.00;;;0.30;;
14209;SDS011;7188;56.070;12.698;2023-08-30T11:33:54;0.75;;;0.20;;
14209;SDS011;7188;56.070;12.698;2023-08-30T11:36:22;0.22;;;0.22;;
14209;SDS011;7188;56.070;12.698;2023-08-30T11:38:54;0.20;;;0.20;;
14209;SDS011;7188;56.070;12.698;2023-08-30T11:41:20;1.45;;;0.20;;
14209;SDS011;7188;56.070;12.698;2023-08-30T11:43:52;0.22;;;0.20;;
14209;SDS011;7188;56.070;12.698;2023-08-30T11:46:19;0.65;;;0.10;;
14209;SDS011;7188;56.070;12.698;2023-08-30T11:48:45;1.05;;;0.20;;
14209;SDS011;7188;56.070;12.698;2023-08-30T11:51:13;0.65;;;0.30;;
14209;SDS011;7188;56.070;12.698;2023-08-30T11:53:39;0.10;;;0.10;;
14209;SDS011;7188;56.070;12.698;2023-08-30T11:56:05;0.22;;;0.22;;
14209;SDS011;7188;56.070;12.698;2023-08-30T11:58:32;0.80;;;0.20;;
14209;SDS011;7188;56.070;12.698;2023-08-30T12:01:02;0.50;;;0.40;;
14209;SDS011;7188;56.070;12.698;2023-08-30T12:03:29;1.67;;;0.30;;
14209;SDS011;7188;56.070;12.698;2023-08-30T12:05:55;0.20;;;0.20;;
14209;SDS011;7188;56.070;12.698;2023-08-30T12:08:25;0.30;;;0.30;;
14209;SDS011;7188;56.070;12.698;2023-08-30T12:10:52;0.20;;;0.20;;
14209;SDS011;7188;56.070;12.698;2023-08-30T12:13:28;1.88;;;0.30;;
14209;SDS011;7188;56.070;12.698;2023-08-30T12:15:57;0.28;;;0.20;;
14209;SDS011;7188;56.070;12.698;2023-08-30T12:18:24;0.20;;;0.20;;
14209;SDS011;7188;56.070;12.698;2023-08-30T12:20:54;0.70;;;0.20;;
14209;SDS011;7188;56.070;12.698;2023-08-30T12:23:24;0.20;;;0.20;;
14209;SDS011;7188;56.070;12.698;2023-08-30T12:26:01;0.57;;;0.10;;
14209;SDS011;7188;56.070;12.698;2023-08-30T12:28:29;0.20;;;0.20;;
14209;SDS011;7188;56.070;12.698;2023-08-30T12:30:56;0.40;;;0.20;;
14209;SDS011;7188;56.070;12.698;2023-08-30T12:33:22;0.98;;;0.20;;
14209;SDS011;7188;56.070;12.698;2023-08-30T12:35:50;0.13;;;0.13;;
14209;SDS011;7188;56.070;12.698;2023-08-30T12:38:16;0.22;;;0.15;;
14209;SDS011;7188;56.070;12.698;2023-08-30T12:40:48;0.50;;;0.20;;
14209;SDS011;7188;56.070;12.698;2023-08-30T12:43:15;0.25;;;0.25;;
14209;SDS011;7188;56.070;12.698;2023-08-30T12:45:50;0.68;;;0.25;;
14209;SDS011;7188;56.070;12.698;2023-08-30T12:48:16;0.20;;;0.20;;
14209;SDS011;7188;56.070;12.698;2023-08-30T12:50:43;0.13;;;0.10;;
14209;SDS011;7188;56.070;12.698;2023-08-30T12:53:10;1.25;;;0.30;;
14209;SDS011;7188;56.070;12.698;2023-08-30T12:55:36;0.22;;;0.10;;
14209;SDS011;7188;56.070;12.698;2023-08-30T12:58:06;0.55;;;0.30;;
14209;SDS011;7188;56.070;12.698;2023-08-30T13:00:32;0.20;;;0.20;;
14209;SDS011;7188;56.070;12.698;2023-08-30T13:02:58;1.02;;;0.30;;
14209;SDS011;7188;56.070;12.698;2023-08-30T13:05:24;1.13;;;0.32;;
14209;SDS011;7188;56.070;12.698;2023-08-30T13:07:50;0.30;;;0.20;;
14209;SDS011;7188;56.070;12.698;2023-08-30T13:10:16;0.43;;;0.22;;
14209;SDS011;7188;56.070;12.698;2023-08-30T13:12:42;0.65;;;0.30;;
14209;SDS011;7188;56.070;12.698;2023-08-30T13:15:08;0.20;;;0.20;;
14209;SDS011;7188;56.070;12.698;2023-08-30T13:17:34;0.43;;;0.30;;
14209;SDS011;7188;56.070;12.698;2023-08-30T13:19:59;0.17;;;0.17;;
14209;SDS011;7188;56.070;12.698;2023-08-30T13:22:26;0.22;;;0.22;;
14209;SDS011;7188;56.070;12.698;2023-08-30T13:24:52;0.80;;;0.28;;
14209;SDS011;7188;56.070;12.698;2023-08-30T13:27:18;0.75;;;0.30;;
14209;SDS011;7188;56.070;12.698;2023-08-30T13:29:44;1.10;;;0.20;;
14209;SDS011;7188;56.070;12.698;2023-08-30T13:32:10;1.45;;;0.30;;
14209;SDS011;7188;56.070;12.698;2023-08-30T13:37:24;0.73;;;0.30;;
14209;SDS011;7188;56.070;12.698;2023-08-30T13:39:50;0.20;;;0.20;;
14209;SDS011;7188;56.070;12.698;2023-08-30T13:42:17;0.80;;;0.30;;
14209;SDS011;7188;56.070;12.698;2023-08-30T13:44:42;0.40;;;0.30;;
14209;SDS011;7188;56.070;12.698;2023-08-30T13:47:09;0.57;;;0.40;;
14209;SDS011;7188;56.070;12.698;2023-08-30T13:49:35;0.32;;;0.32;;
14209;SDS011;7188;56.070;12.698;2023-08-30T13:52:01;1.25;;;0.38;;
14209;SDS011;7188;56.070;12.698;2023-08-30T13:54:26;0.30;;;0.30;;
14209;SDS011;7188;56.070;12.698;2023-08-30T13:56:54;0.77;;;0.30;;
14209;SDS011;7188;56.070;12.698;2023-08-30T13:59:21;0.80;;;0.30;;
14209;SDS011;7188;56.070;12.698;2023-08-30T14:01:47;0.35;;;0.20;;
14209;SDS011;7188;56.070;12.698;2023-08-30T14:04:13;0.47;;;0.47;;
14209;SDS011;7188;56.070;12.698;2023-08-30T14:06:39;0.20;;;0.20;;
14209;SDS011;7188;56.070;12.698;2023-08-30T14:09:05;0.60;;;0.30;;
14209;SDS011;7188;56.070;12.698;2023-08-30T14:11:33;0.28;;;0.28;;
14209;SDS011;7188;56.070;12.698;2023-08-30T14:14:03;0.25;;;0.22;;
14209;SDS011;7188;56.070;12.698;2023-08-30T14:16:28;1.67;;;0.25;;
14209;SDS011;7188;56.070;12.698;2023-08-30T14:18:54;0.43;;;0.20;;
14209;SDS011;7188;56.070;12.698;2023-08-30T14:21:20;0.30;;;0.30;;
14209;SDS011;7188;56.070;12.698;2023-08-30T14:23:45;0.43;;;0.30;;
14209;SDS011;7188;56.070;12.698;2023-08-30T14:26:11;0.20;;;0.20;;
14209;SDS011;7188;56.070;12.698;2023-08-30T14:28:40;0.30;;;0.30;;
14209;SDS011;7188;56.070;12.698;2023-08-30T14:31:06;0.40;;;0.20;;
14209;SDS011;7188;56.070;12.698;2023-08-30T14:33:33;0.22;;;0.22;;
14209;SDS011;7188;56.070;12.698;2023-08-30T14:35:59;0.30;;;0.30;;
14209;SDS011;7188;56.070;12.698;2023-08-30T14:38:26;0.47;;;0.20;;
14209;SDS011;7188;56.070;12.698;2023-08-30T14:40:55;0.52;;;0.22;;
14209;SDS011;7188;56.070;12.698;2023-08-30T14:43:21;0.35;;;0.22;;
14209;SDS011;7188;56.070;12.698;2023-08-30T14:45:47;0.73;;;0.30;;
14209;SDS011;7188;56.070;12.698;2023-08-30T14:48:12;0.30;;;0.30;;
14209;SDS011;7188;56.070;12.698;2023-08-30T14:50:38;1.85;;;0.32;;
14209;SDS011;7188;56.070;12.698;2023-08-30T14:53:04;0.93;;;0.30;;
14209;SDS011;7188;56.070;12.698;2023-08-30T14:55:30;0.30;;;0.30;;
14209;SDS011;7188;56.070;12.698;2023-08-30T14:57:56;0.38;;;0.20;;
14209;SDS011;7188;56.070;12.698;2023-08-30T15:00:22;0.35;;;0.30;;
14209;SDS011;7188;56.070;12.698;2023-08-30T15:02:47;0.30;;;0.30;;
14209;SDS011;7188;56.070;12.698;2023-08-30T15:05:14;0.35;;;0.20;;
14209;SDS011;7188;56.070;12.698;2023-08-30T15:07:40;0.63;;;0.20;;
14209;SDS011;7188;56.070;12.698;2023-08-30T15:10:05;0.45;;;0.20;;
14209;SDS011;7188;56.070;12.698;2023-08-30T15:12:31;0.20;;;0.20;;